sensor_id;sensor_type;location;lat;lon;timestamp;temperature;humidity
5222;DHT22;2630;52.036;8.514;2023-06-10T00:02:06;16.30;99.90
5222;DHT22;2630;52.036;8.514;2023-06-10T00:04:33;16.20;99.90
5222;DHT22;2630;52.036;8.514;2023-06-10T00:09:24;16.10;99.90
5222;DHT22;2630;52.036;8.514;2023-06-10T00:11:51;16.10;99.90
5222;DHT22;2630;52.036;8.514;2023-06-10T00:14:16;16.20;99.90
5222;DHT22;2630;52.036;8.514;2023-06-10T00:16:42;16.10;99.90
5222;DHT22;2630;52.036;8.514;2023-06-10T00:19:10;16.10;99.90
5222;DHT22;2630;52.036;8.514;2023-06-10T00:24:08;16.00;99.90
5222;DHT22;2630;52.036;8.514;2023-06-10T00:26:38;15.90;99.90
5222;DHT22;2630;52.036;8.514;2023-06-10T00:29:04;15.80;99.90
5222;DHT22;2630;52.036;8.514;2023-06-10T00:31:30;15.80;99.90
5222;DHT22;2630;52.036;8.514;2023-06-10T00:33:56;15.80;99.90
5222;DHT22;2630;52.036;8.514;2023-06-10T00:36:22;15.80;99.90
5222;DHT22;2630;52.036;8.514;2023-06-10T00:38:47;15.80;99.90
5222;DHT22;2630;52.036;8.514;2023-06-10T00:41:15;15.80;99.90
5222;DHT22;2630;52.036;8.514;2023-06-10T00:43:41;15.70;99.90
5222;DHT22;2630;52.036;8.514;2023-06-10T00:46:06;15.70;99.90
5222;DHT22;2630;52.036;8.514;2023-06-10T00:51:01;15.60;99.90
5222;DHT22;2630;52.036;8.514;2023-06-10T00:55:53;15.60;99.90
5222;DHT22;2630;52.036;8.514;2023-06-10T00:58:19;15.50;99.90
5222;DHT22;2630;52.036;8.514;2023-06-10T01:00:45;15.50;99.90
5222;DHT22;2630;52.036;8.514;2023-06-10T01:03:11;15.50;99.90
5222;DHT22;2630;52.036;8.514;2023-06-10T01:05:38;15.40;99.90
5222;DHT22;2630;52.036;8.514;2023-06-10T01:08:33;15.40;99.90
5222;DHT22;2630;52.036;8.514;2023-06-10T01:11:00;15.30;99.90
5222;DHT22;2630;52.036;8.514;2023-06-10T01:13:27;15.30;99.90
5222;DHT22;2630;52.036;8.514;2023-06-10T01:15:57;15.30;99.90
5222;DHT22;2630;52.036;8.514;2023-06-10T01:20:49;15.30;99.90
5222;DHT22;2630;52.036;8.514;2023-06-10T01:23:15;15.20;99.90
5222;DHT22;2630;52.036;8.514;2023-06-10T01:26:05;15.20;99.90
5222;DHT22;2630;52.036;8.514;2023-06-10T01:28:45;15.10;99.90
5222;DHT22;2630;52.036;8.514;2023-06-10T01:31:15;15.20;99.90
5222;DHT22;2630;52.036;8.514;2023-06-10T01:33:47;15.10;99.90
5222;DHT22;2630;52.036;8.514;2023-06-10T01:38:45;15.10;99.90
5222;DHT22;2630;52.036;8.514;2023-06-10T01:43:39;15.10;99.90
5222;DHT22;2630;52.036;8.514;2023-06-10T01:48:31;15.00;99.90
5222;DHT22;2630;52.036;8.514;2023-06-10T01:50:56;15.00;99.90
5222;DHT22;2630;52.036;8.514;2023-06-10T01:55:48;14.80;99.90
5222;DHT22;2630;52.036;8.514;2023-06-10T01:58:14;14.70;99.90
5222;DHT22;2630;52.036;8.514;2023-06-10T02:03:06;14.80;99.90
5222;DHT22;2630;52.036;8.514;2023-06-10T02:07:57;14.70;99.90
5222;DHT22;2630;52.036;8.514;2023-06-10T02:10:23;14.70;99.90
5222;DHT22;2630;52.036;8.514;2023-06-10T02:12:49;14.70;99.90
5222;DHT22;2630;52.036;8.514;2023-06-10T02:15:14;14.70;99.90
5222;DHT22;2630;52.036;8.514;2023-06-10T02:17:40;14.70;99.90
5222;DHT22;2630;52.036;8.514;2023-06-10T02:24:59;14.60;99.90
5222;DHT22;2630;52.036;8.514;2023-06-10T02:27:25;14.60;99.90
5222;DHT22;2630;52.036;8.514;2023-06-10T02:29:50;14.60;99.90
5222;DHT22;2630;52.036;8.514;2023-06-10T02:34:42;14.60;99.90
5222;DHT22;2630;52.036;8.514;2023-06-10T02:37:09;14.60;99.90
5222;DHT22;2630;52.036;8.514;2023-06-10T02:39:34;14.50;99.90
5222;DHT22;2630;52.036;8.514;2023-06-10T02:42:00;14.50;99.90
5222;DHT22;2630;52.036;8.514;2023-06-10T02:44:25;14.50;99.90
5222;DHT22;2630;52.036;8.514;2023-06-10T02:46:51;14.50;99.90
5222;DHT22;2630;52.036;8.514;2023-06-10T02:54:09;14.40;99.90
5222;DHT22;2630;52.036;8.514;2023-06-10T02:56:34;14.30;99.90
5222;DHT22;2630;52.036;8.514;2023-06-10T02:59:00;14.30;99.90
5222;DHT22;2630;52.036;8.514;2023-06-10T03:01:26;14.30;99.90
5222;DHT22;2630;52.036;8.514;2023-06-10T03:03:51;14.30;99.90
5222;DHT22;2630;52.036;8.514;2023-06-10T03:06:17;14.30;99.90
5222;DHT22;2630;52.036;8.514;2023-06-10T03:08:44;14.30;99.90
5222;DHT22;2630;52.036;8.514;2023-06-10T03:11:11;14.30;99.90
5222;DHT22;2630;52.036;8.514;2023-06-10T03:13:37;14.30;99.90
5222;DHT22;2630;52.036;8.514;2023-06-10T03:18:29;14.30;99.90
5222;DHT22;2630;52.036;8.514;2023-06-10T03:20:55;14.20;99.90
5222;DHT22;2630;52.036;8.514;2023-06-10T03:25:48;14.20;99.90
5222;DHT22;2630;52.036;8.514;2023-06-10T03:28:14;14.20;99.90
5222;DHT22;2630;52.036;8.514;2023-06-10T03:30:40;14.40;99.90
5222;DHT22;2630;52.036;8.514;2023-06-10T03:33:05;14.30;99.90
5222;DHT22;2630;52.036;8.514;2023-06-10T03:35:31;14.30;99.90
5222;DHT22;2630;52.036;8.514;2023-06-10T03:40:24;14.40;99.90
5222;DHT22;2630;52.036;8.514;2023-06-10T03:42:50;14.50;99.90
5222;DHT22;2630;52.036;8.514;2023-06-10T03:45:15;14.60;99.90
5222;DHT22;2630;52.036;8.514;2023-06-10T03:47:41;14.80;99.90
5222;DHT22;2630;52.036;8.514;2023-06-10T03:55:01;15.90;99.90
5222;DHT22;2630;52.036;8.514;2023-06-10T03:57:27;16.20;99.90
5222;DHT22;2630;52.036;8.514;2023-06-10T03:59:53;16.60;99.90
5222;DHT22;2630;52.036;8.514;2023-06-10T04:02:18;16.90;99.90
5222;DHT22;2630;52.036;8.514;2023-06-10T04:04:44;16.90;99.90
5222;DHT22;2630;52.036;8.514;2023-06-10T04:09:36;17.40;99.90
5222;DHT22;2630;52.036;8.514;2023-06-10T04:12:02;17.50;99.90
5222;DHT22;2630;52.036;8.514;2023-06-10T04:14:31;17.80;99.90
5222;DHT22;2630;52.036;8.514;2023-06-10T04:16:57;17.90;99.90
5222;DHT22;2630;52.036;8.514;2023-06-10T04:19:22;18.10;99.90
5222;DHT22;2630;52.036;8.514;2023-06-10T04:21:48;18.10;99.90
5222;DHT22;2630;52.036;8.514;2023-06-10T04:26:39;17.60;99.90
5222;DHT22;2630;52.036;8.514;2023-06-10T04:29:05;17.50;99.90
5222;DHT22;2630;52.036;8.514;2023-06-10T04:31:30;17.30;99.90
5222;DHT22;2630;52.036;8.514;2023-06-10T04:33:57;17.20;99.90
5222;DHT22;2630;52.036;8.514;2023-06-10T04:38:49;17.00;99.90
5222;DHT22;2630;52.036;8.514;2023-06-10T04:43:43;16.90;99.90
5222;DHT22;2630;52.036;8.514;2023-06-10T04:46:08;16.80;99.90
5222;DHT22;2630;52.036;8.514;2023-06-10T04:48:35;16.70;99.90
5222;DHT22;2630;52.036;8.514;2023-06-10T04:51:01;16.70;99.90
5222;DHT22;2630;52.036;8.514;2023-06-10T04:53:26;16.80;99.90
5222;DHT22;2630;52.036;8.514;2023-06-10T04:55:54;16.70;99.90
5222;DHT22;2630;52.036;8.514;2023-06-10T04:58:19;16.80;99.90
5222;DHT22;2630;52.036;8.514;2023-06-10T05:00:45;16.90;99.90
5222;DHT22;2630;52.036;8.514;2023-06-10T05:03:10;16.90;99.90
5222;DHT22;2630;52.036;8.514;2023-06-10T05:08:02;17.10;99.90
5222;DHT22;2630;52.036;8.514;2023-06-10T05:10:27;17.10;99.90
5222;DHT22;2630;52.036;8.514;2023-06-10T05:12:57;17.10;99.90
5222;DHT22;2630;52.036;8.514;2023-06-10T05:15:23;17.10;99.90
5222;DHT22;2630;52.036;8.514;2023-06-10T05:17:48;17.10;99.90
5222;DHT22;2630;52.036;8.514;2023-06-10T05:20:14;17.20;99.90
5222;DHT22;2630;52.036;8.514;2023-06-10T05:22:40;17.20;99.90
5222;DHT22;2630;52.036;8.514;2023-06-10T05:25:06;17.20;99.90
5222;DHT22;2630;52.036;8.514;2023-06-10T05:29:58;17.30;99.90
5222;DHT22;2630;52.036;8.514;2023-06-10T05:32:23;17.40;99.90
5222;DHT22;2630;52.036;8.514;2023-06-10T05:34:49;17.40;99.90
5222;DHT22;2630;52.036;8.514;2023-06-10T05:37:14;17.50;99.90
5222;DHT22;2630;52.036;8.514;2023-06-10T05:39:40;17.60;99.90
5222;DHT22;2630;52.036;8.514;2023-06-10T05:44:33;17.80;99.90
5222;DHT22;2630;52.036;8.514;2023-06-10T05:49:24;17.90;99.90
5222;DHT22;2630;52.036;8.514;2023-06-10T05:51:50;18.00;99.90
5222;DHT22;2630;52.036;8.514;2023-06-10T05:56:43;18.20;99.90
5222;DHT22;2630;52.036;8.514;2023-06-10T05:59:09;18.30;99.90
5222;DHT22;2630;52.036;8.514;2023-06-10T06:04:01;18.40;99.90
5222;DHT22;2630;52.036;8.514;2023-06-10T06:06:26;18.60;99.90
5222;DHT22;2630;52.036;8.514;2023-06-10T06:08:52;18.70;99.90
5222;DHT22;2630;52.036;8.514;2023-06-10T06:11:18;18.90;99.90
5222;DHT22;2630;52.036;8.514;2023-06-10T06:13:43;19.00;99.90
5222;DHT22;2630;52.036;8.514;2023-06-10T06:16:09;19.20;99.90
5222;DHT22;2630;52.036;8.514;2023-06-10T06:21:00;19.50;99.90
5222;DHT22;2630;52.036;8.514;2023-06-10T06:25:52;19.60;99.90
5222;DHT22;2630;52.036;8.514;2023-06-10T06:28:17;19.60;99.90
5222;DHT22;2630;52.036;8.514;2023-06-10T06:30:44;19.70;99.90
5222;DHT22;2630;52.036;8.514;2023-06-10T06:33:11;19.90;99.90
5222;DHT22;2630;52.036;8.514;2023-06-10T06:38:03;19.80;99.90
5222;DHT22;2630;52.036;8.514;2023-06-10T06:40:29;19.80;99.90
5222;DHT22;2630;52.036;8.514;2023-06-10T06:42:55;19.80;99.90
5222;DHT22;2630;52.036;8.514;2023-06-10T06:45:20;19.90;99.90
5222;DHT22;2630;52.036;8.514;2023-06-10T06:47:46;20.00;99.90
5222;DHT22;2630;52.036;8.514;2023-06-10T06:50:11;20.10;99.90
5222;DHT22;2630;52.036;8.514;2023-06-10T06:52:37;20.20;99.90
5222;DHT22;2630;52.036;8.514;2023-06-10T06:55:03;20.30;99.90
5222;DHT22;2630;52.036;8.514;2023-06-10T06:57:29;20.30;99.90
5222;DHT22;2630;52.036;8.514;2023-06-10T07:04:46;21.60;99.90
5222;DHT22;2630;52.036;8.514;2023-06-10T07:07:14;22.20;99.90
5222;DHT22;2630;52.036;8.514;2023-06-10T07:09:40;23.10;99.90
5222;DHT22;2630;52.036;8.514;2023-06-10T07:12:06;23.80;99.90
5222;DHT22;2630;52.036;8.514;2023-06-10T07:14:32;24.10;99.90
5222;DHT22;2630;52.036;8.514;2023-06-10T07:31:33;22.30;99.90
5222;DHT22;2630;52.036;8.514;2023-06-10T07:33:59;22.10;99.90
5222;DHT22;2630;52.036;8.514;2023-06-10T07:36:25;21.90;99.90
5222;DHT22;2630;52.036;8.514;2023-06-10T07:38:53;21.90;99.90
5222;DHT22;2630;52.036;8.514;2023-06-10T07:41:19;22.00;99.90
5222;DHT22;2630;52.036;8.514;2023-06-10T07:43:44;22.10;99.90
5222;DHT22;2630;52.036;8.514;2023-06-10T07:46:10;22.10;99.90
5222;DHT22;2630;52.036;8.514;2023-06-10T07:48:36;22.00;99.90
5222;DHT22;2630;52.036;8.514;2023-06-10T07:51:01;22.00;99.90
5222;DHT22;2630;52.036;8.514;2023-06-10T07:53:27;22.10;99.90
5222;DHT22;2630;52.036;8.514;2023-06-10T07:55:53;22.10;99.90
5222;DHT22;2630;52.036;8.514;2023-06-10T07:58:18;22.00;99.90
5222;DHT22;2630;52.036;8.514;2023-06-10T08:00:44;22.10;99.90
5222;DHT22;2630;52.036;8.514;2023-06-10T08:05:35;22.20;99.90
5222;DHT22;2630;52.036;8.514;2023-06-10T08:10:27;22.40;99.90
5222;DHT22;2630;52.036;8.514;2023-06-10T08:12:52;22.40;99.90
5222;DHT22;2630;52.036;8.514;2023-06-10T08:15:18;22.40;99.90
5222;DHT22;2630;52.036;8.514;2023-06-10T08:17:44;22.40;99.90
5222;DHT22;2630;52.036;8.514;2023-06-10T08:20:10;22.50;99.90
5222;DHT22;2630;52.036;8.514;2023-06-10T08:22:35;22.40;99.90
5222;DHT22;2630;52.036;8.514;2023-06-10T08:25:01;22.50;99.90
5222;DHT22;2630;52.036;8.514;2023-06-10T08:27:26;22.60;99.90
5222;DHT22;2630;52.036;8.514;2023-06-10T08:29:52;22.80;99.90
5222;DHT22;2630;52.036;8.514;2023-06-10T08:32:18;22.80;99.90
5222;DHT22;2630;52.036;8.514;2023-06-10T08:34:43;22.80;99.90
5222;DHT22;2630;52.036;8.514;2023-06-10T08:37:09;23.00;99.90
5222;DHT22;2630;52.036;8.514;2023-06-10T08:39:34;23.10;99.90
5222;DHT22;2630;52.036;8.514;2023-06-10T08:42:09;23.20;99.90
5222;DHT22;2630;52.036;8.514;2023-06-10T08:44:37;23.30;99.90
5222;DHT22;2630;52.036;8.514;2023-06-10T08:47:14;23.40;99.90
5222;DHT22;2630;52.036;8.514;2023-06-10T08:49:46;23.50;99.90
5222;DHT22;2630;52.036;8.514;2023-06-10T08:52:18;23.70;99.90
5222;DHT22;2630;52.036;8.514;2023-06-10T08:55:01;23.80;99.90
5222;DHT22;2630;52.036;8.514;2023-06-10T08:57:28;24.60;99.90
5222;DHT22;2630;52.036;8.514;2023-06-10T09:02:22;28.10;99.90
5222;DHT22;2630;52.036;8.514;2023-06-10T09:04:49;30.20;99.90
5222;DHT22;2630;52.036;8.514;2023-06-10T09:07:18;32.30;98.50
5222;DHT22;2630;52.036;8.514;2023-06-10T09:09:44;33.90;89.80
5222;DHT22;2630;52.036;8.514;2023-06-10T09:12:11;35.10;81.90
5222;DHT22;2630;52.036;8.514;2023-06-10T09:14:37;36.30;77.10
5222;DHT22;2630;52.036;8.514;2023-06-10T09:17:03;37.70;66.50
5222;DHT22;2630;52.036;8.514;2023-06-10T09:19:30;38.50;61.20
5222;DHT22;2630;52.036;8.514;2023-06-10T09:21:56;39.10;58.50
5222;DHT22;2630;52.036;8.514;2023-06-10T09:24:22;39.40;56.30
5222;DHT22;2630;52.036;8.514;2023-06-10T09:26:49;40.00;57.70
5222;DHT22;2630;52.036;8.514;2023-06-10T09:29:16;39.50;54.50
5222;DHT22;2630;52.036;8.514;2023-06-10T09:31:43;40.30;53.30
5222;DHT22;2630;52.036;8.514;2023-06-10T09:34:14;40.20;51.30
5222;DHT22;2630;52.036;8.514;2023-06-10T09:36:40;40.40;52.10
5222;DHT22;2630;52.036;8.514;2023-06-10T09:39:14;40.70;52.70
5222;DHT22;2630;52.036;8.514;2023-06-10T09:41:44;41.10;50.00
5222;DHT22;2630;52.036;8.514;2023-06-10T09:44:15;40.60;52.40
5222;DHT22;2630;52.036;8.514;2023-06-10T09:49:07;40.20;46.00
5222;DHT22;2630;52.036;8.514;2023-06-10T09:51:32;39.80;46.60
5222;DHT22;2630;52.036;8.514;2023-06-10T09:53:59;40.50;48.10
5222;DHT22;2630;52.036;8.514;2023-06-10T09:56:36;41.20;47.50
5222;DHT22;2630;52.036;8.514;2023-06-10T09:59:03;41.80;46.90
5222;DHT22;2630;52.036;8.514;2023-06-10T10:01:31;42.20;46.30
5222;DHT22;2630;52.036;8.514;2023-06-10T10:03:58;42.60;43.90
5222;DHT22;2630;52.036;8.514;2023-06-10T10:06:25;43.00;45.60
5222;DHT22;2630;52.036;8.514;2023-06-10T10:08:51;42.70;47.50
5222;DHT22;2630;52.036;8.514;2023-06-10T10:11:18;42.20;45.60
5222;DHT22;2630;52.036;8.514;2023-06-10T10:13:53;41.80;44.30
5222;DHT22;2630;52.036;8.514;2023-06-10T10:16:21;41.80;45.50
5222;DHT22;2630;52.036;8.514;2023-06-10T10:21:23;41.80;45.20
5222;DHT22;2630;52.036;8.514;2023-06-10T10:24:12;41.60;45.70
5222;DHT22;2630;52.036;8.514;2023-06-10T10:26:41;40.50;45.30
5222;DHT22;2630;52.036;8.514;2023-06-10T10:29:11;39.00;48.00
5222;DHT22;2630;52.036;8.514;2023-06-10T10:31:42;38.00;48.50
5222;DHT22;2630;52.036;8.514;2023-06-10T10:34:13;36.50;49.40
5222;DHT22;2630;52.036;8.514;2023-06-10T10:36:41;34.90;51.20
5222;DHT22;2630;52.036;8.514;2023-06-10T10:39:07;33.40;53.00
5222;DHT22;2630;52.036;8.514;2023-06-10T10:41:34;32.10;55.50
5222;DHT22;2630;52.036;8.514;2023-06-10T10:44:01;31.90;57.80
5222;DHT22;2630;52.036;8.514;2023-06-10T10:46:27;31.30;59.10
5222;DHT22;2630;52.036;8.514;2023-06-10T10:48:54;30.80;58.50
5222;DHT22;2630;52.036;8.514;2023-06-10T10:54:14;29.70;60.50
5222;DHT22;2630;52.036;8.514;2023-06-10T10:57:10;29.00;63.50
5222;DHT22;2630;52.036;8.514;2023-06-10T10:59:51;28.70;66.70
5222;DHT22;2630;52.036;8.514;2023-06-10T11:02:41;28.20;66.80
5222;DHT22;2630;52.036;8.514;2023-06-10T11:05:15;28.00;66.40
5222;DHT22;2630;52.036;8.514;2023-06-10T11:07:52;27.70;67.80
5222;DHT22;2630;52.036;8.514;2023-06-10T11:10:30;27.30;68.00
5222;DHT22;2630;52.036;8.514;2023-06-10T11:12:57;27.10;67.70
5222;DHT22;2630;52.036;8.514;2023-06-10T11:31:42;26.60;72.10
5222;DHT22;2630;52.036;8.514;2023-06-10T11:34:08;26.50;71.00
5222;DHT22;2630;52.036;8.514;2023-06-10T11:36:37;26.70;73.40
5222;DHT22;2630;52.036;8.514;2023-06-10T11:41:33;26.70;70.00
5222;DHT22;2630;52.036;8.514;2023-06-10T11:44:12;26.70;74.90
5222;DHT22;2630;52.036;8.514;2023-06-10T11:46:39;26.70;74.50
5222;DHT22;2630;52.036;8.514;2023-06-10T11:49:06;26.80;72.90
5222;DHT22;2630;52.036;8.514;2023-06-10T11:51:36;26.80;73.10
5222;DHT22;2630;52.036;8.514;2023-06-10T11:54:03;26.70;74.00
5222;DHT22;2630;52.036;8.514;2023-06-10T11:56:30;26.80;72.50
5222;DHT22;2630;52.036;8.514;2023-06-10T11:58:58;26.70;70.70
5222;DHT22;2630;52.036;8.514;2023-06-10T12:01:26;26.70;70.80
5222;DHT22;2630;52.036;8.514;2023-06-10T12:04:02;26.60;69.40
5222;DHT22;2630;52.036;8.514;2023-06-10T12:06:40;26.60;69.80
5222;DHT22;2630;52.036;8.514;2023-06-10T12:09:40;26.70;70.30
5222;DHT22;2630;52.036;8.514;2023-06-10T12:17:17;26.80;71.70
5222;DHT22;2630;52.036;8.514;2023-06-10T12:19:42;26.90;74.30
5222;DHT22;2630;52.036;8.514;2023-06-10T12:22:08;27.00;72.40
5222;DHT22;2630;52.036;8.514;2023-06-10T12:25:04;27.00;73.50
5222;DHT22;2630;52.036;8.514;2023-06-10T12:27:32;27.00;73.40
5222;DHT22;2630;52.036;8.514;2023-06-10T12:32:40;27.00;80.70
5222;DHT22;2630;52.036;8.514;2023-06-10T12:35:07;26.90;78.50
5222;DHT22;2630;52.036;8.514;2023-06-10T12:37:33;26.80;82.30
5222;DHT22;2630;52.036;8.514;2023-06-10T12:40:00;26.90;80.60
5222;DHT22;2630;52.036;8.514;2023-06-10T12:42:26;26.90;81.20
5222;DHT22;2630;52.036;8.514;2023-06-10T12:44:55;27.00;77.80
5222;DHT22;2630;52.036;8.514;2023-06-10T12:47:35;27.00;80.60
5222;DHT22;2630;52.036;8.514;2023-06-10T12:54:58;26.90;84.90
5222;DHT22;2630;52.036;8.514;2023-06-10T12:57:24;27.00;84.00
5222;DHT22;2630;52.036;8.514;2023-06-10T13:02:18;26.90;83.40
5222;DHT22;2630;52.036;8.514;2023-06-10T13:04:45;26.80;88.50
5222;DHT22;2630;52.036;8.514;2023-06-10T13:07:11;26.90;87.60
5222;DHT22;2630;52.036;8.514;2023-06-10T13:09:37;27.00;86.80
5222;DHT22;2630;52.036;8.514;2023-06-10T13:12:02;27.00;84.20
5222;DHT22;2630;52.036;8.514;2023-06-10T13:14:28;27.00;85.90
5222;DHT22;2630;52.036;8.514;2023-06-10T13:16:54;26.90;83.70
5222;DHT22;2630;52.036;8.514;2023-06-10T13:53:27;27.50;84.00
5222;DHT22;2630;52.036;8.514;2023-06-10T13:55:53;27.50;84.30
5222;DHT22;2630;52.036;8.514;2023-06-10T14:27:31;27.40;89.10
5222;DHT22;2630;52.036;8.514;2023-06-10T14:32:23;27.60;84.20
5222;DHT22;2630;52.036;8.514;2023-06-10T14:34:48;27.50;86.30
5222;DHT22;2630;52.036;8.514;2023-06-10T14:42:09;27.40;85.20
5222;DHT22;2630;52.036;8.514;2023-06-10T14:47:01;27.50;85.80
5222;DHT22;2630;52.036;8.514;2023-06-10T14:49:27;27.60;85.90
5222;DHT22;2630;52.036;8.514;2023-06-10T14:51:52;27.60;87.50
5222;DHT22;2630;52.036;8.514;2023-06-10T14:54:18;27.50;87.70
5222;DHT22;2630;52.036;8.514;2023-06-10T14:59:09;27.50;90.10
5222;DHT22;2630;52.036;8.514;2023-06-10T15:01:35;27.50;89.90
5222;DHT22;2630;52.036;8.514;2023-06-10T15:04:01;27.50;89.00
5222;DHT22;2630;52.036;8.514;2023-06-10T15:06:27;27.50;89.00
5222;DHT22;2630;52.036;8.514;2023-06-10T15:08:53;27.50;89.70
5222;DHT22;2630;52.036;8.514;2023-06-10T15:11:18;27.50;90.20
5222;DHT22;2630;52.036;8.514;2023-06-10T15:13:44;27.40;90.50
5222;DHT22;2630;52.036;8.514;2023-06-10T15:16:09;27.40;90.50
5222;DHT22;2630;52.036;8.514;2023-06-10T15:18:35;27.40;91.10
5222;DHT22;2630;52.036;8.514;2023-06-10T15:21:00;27.40;91.60
5222;DHT22;2630;52.036;8.514;2023-06-10T15:23:26;27.50;91.50
5222;DHT22;2630;52.036;8.514;2023-06-10T15:25:52;27.50;91.30
5222;DHT22;2630;52.036;8.514;2023-06-10T15:28:17;27.40;91.60
5222;DHT22;2630;52.036;8.514;2023-06-10T15:30:43;27.40;91.10
5222;DHT22;2630;52.036;8.514;2023-06-10T15:33:08;27.40;91.20
5222;DHT22;2630;52.036;8.514;2023-06-10T15:35:34;27.40;91.60
5222;DHT22;2630;52.036;8.514;2023-06-10T15:37:59;27.30;92.10
5222;DHT22;2630;52.036;8.514;2023-06-10T15:42:51;27.30;91.70
5222;DHT22;2630;52.036;8.514;2023-06-10T15:45:17;27.30;91.20
5222;DHT22;2630;52.036;8.514;2023-06-10T15:47:43;27.30;91.10
5222;DHT22;2630;52.036;8.514;2023-06-10T15:50:09;27.30;91.00
5222;DHT22;2630;52.036;8.514;2023-06-10T15:55:02;27.30;91.10
5222;DHT22;2630;52.036;8.514;2023-06-10T15:57:28;27.40;90.50
5222;DHT22;2630;52.036;8.514;2023-06-10T15:59:53;27.30;90.80
5222;DHT22;2630;52.036;8.514;2023-06-10T16:02:19;27.30;91.20
5222;DHT22;2630;52.036;8.514;2023-06-10T16:04:45;27.30;90.40
5222;DHT22;2630;52.036;8.514;2023-06-10T16:09:36;27.20;90.50
5222;DHT22;2630;52.036;8.514;2023-06-10T16:12:02;27.20;90.30
5222;DHT22;2630;52.036;8.514;2023-06-10T16:14:28;27.20;90.90
5222;DHT22;2630;52.036;8.514;2023-06-10T16:16:54;27.30;90.80
5222;DHT22;2630;52.036;8.514;2023-06-10T16:19:25;27.30;91.20
5222;DHT22;2630;52.036;8.514;2023-06-10T16:21:51;27.20;91.40
5222;DHT22;2630;52.036;8.514;2023-06-10T16:24:17;27.10;90.90
5222;DHT22;2630;52.036;8.514;2023-06-10T16:26:43;27.10;91.30
5222;DHT22;2630;52.036;8.514;2023-06-10T16:29:08;27.10;91.80
5222;DHT22;2630;52.036;8.514;2023-06-10T16:31:34;27.10;91.40
5222;DHT22;2630;52.036;8.514;2023-06-10T16:34:00;27.00;92.20
5222;DHT22;2630;52.036;8.514;2023-06-10T16:36:25;27.10;92.00
5222;DHT22;2630;52.036;8.514;2023-06-10T16:38:51;27.10;92.50
5222;DHT22;2630;52.036;8.514;2023-06-10T16:41:19;27.10;93.70
5222;DHT22;2630;52.036;8.514;2023-06-10T16:43:45;27.00;93.00
5222;DHT22;2630;52.036;8.514;2023-06-10T16:46:11;27.10;92.90
5222;DHT22;2630;52.036;8.514;2023-06-10T16:48:36;27.00;91.30
5222;DHT22;2630;52.036;8.514;2023-06-10T16:51:02;27.00;91.80
5222;DHT22;2630;52.036;8.514;2023-06-10T16:55:53;27.00;92.30
5222;DHT22;2630;52.036;8.514;2023-06-10T16:58:19;27.00;92.00
5222;DHT22;2630;52.036;8.514;2023-06-10T17:05:37;26.90;92.10
5222;DHT22;2630;52.036;8.514;2023-06-10T17:08:03;26.90;91.10
5222;DHT22;2630;52.036;8.514;2023-06-10T17:10:28;26.90;90.90
5222;DHT22;2630;52.036;8.514;2023-06-10T17:12:54;27.00;90.90
5222;DHT22;2630;52.036;8.514;2023-06-10T17:15:20;26.90;90.60
5222;DHT22;2630;52.036;8.514;2023-06-10T17:17:45;26.90;91.00
5222;DHT22;2630;52.036;8.514;2023-06-10T17:20:11;26.90;91.10
5222;DHT22;2630;52.036;8.514;2023-06-10T17:22:37;26.90;90.80
5222;DHT22;2630;52.036;8.514;2023-06-10T17:25:03;26.90;90.70
5222;DHT22;2630;52.036;8.514;2023-06-10T17:27:29;26.80;91.60
5222;DHT22;2630;52.036;8.514;2023-06-10T17:29:54;26.80;91.80
5222;DHT22;2630;52.036;8.514;2023-06-10T17:32:20;26.70;91.70
5222;DHT22;2630;52.036;8.514;2023-06-10T17:34:45;26.80;91.20
5222;DHT22;2630;52.036;8.514;2023-06-10T17:37:11;26.70;92.40
5222;DHT22;2630;52.036;8.514;2023-06-10T17:39:36;26.70;92.30
5222;DHT22;2630;52.036;8.514;2023-06-10T17:42:02;26.60;93.60
5222;DHT22;2630;52.036;8.514;2023-06-10T17:44:28;26.70;92.40
5222;DHT22;2630;52.036;8.514;2023-06-10T17:49:20;26.60;92.40
5222;DHT22;2630;52.036;8.514;2023-06-10T17:51:49;26.60;92.50
5222;DHT22;2630;52.036;8.514;2023-06-10T17:54:15;26.60;93.00
5222;DHT22;2630;52.036;8.514;2023-06-10T17:56:43;26.60;93.20
5222;DHT22;2630;52.036;8.514;2023-06-10T17:59:09;26.50;93.30
5222;DHT22;2630;52.036;8.514;2023-06-10T18:01:34;26.50;93.60
5222;DHT22;2630;52.036;8.514;2023-06-10T18:04:03;26.50;94.20
5222;DHT22;2630;52.036;8.514;2023-06-10T18:06:30;26.40;94.60
5222;DHT22;2630;52.036;8.514;2023-06-10T18:09:05;26.30;94.40
5222;DHT22;2630;52.036;8.514;2023-06-10T18:11:31;26.20;95.10
5222;DHT22;2630;52.036;8.514;2023-06-10T18:13:57;26.10;95.90
5222;DHT22;2630;52.036;8.514;2023-06-10T18:16:22;26.10;96.80
5222;DHT22;2630;52.036;8.514;2023-06-10T18:18:48;26.10;96.70
5222;DHT22;2630;52.036;8.514;2023-06-10T18:21:14;26.10;97.10
5222;DHT22;2630;52.036;8.514;2023-06-10T18:26:06;26.00;97.40
5222;DHT22;2630;52.036;8.514;2023-06-10T18:28:32;26.00;98.20
5222;DHT22;2630;52.036;8.514;2023-06-10T18:30:59;25.90;98.70
5222;DHT22;2630;52.036;8.514;2023-06-10T18:33:26;25.90;98.80
5222;DHT22;2630;52.036;8.514;2023-06-10T18:35:52;25.80;98.70
5222;DHT22;2630;52.036;8.514;2023-06-10T18:38:18;25.80;99.00
5222;DHT22;2630;52.036;8.514;2023-06-10T18:40:44;25.80;99.40
5222;DHT22;2630;52.036;8.514;2023-06-10T18:50:28;25.70;99.90
5222;DHT22;2630;52.036;8.514;2023-06-10T18:52:54;25.70;99.90
5222;DHT22;2630;52.036;8.514;2023-06-10T18:55:20;25.70;99.90
5222;DHT22;2630;52.036;8.514;2023-06-10T18:57:46;25.70;99.90
5222;DHT22;2630;52.036;8.514;2023-06-10T19:00:12;25.60;99.90
5222;DHT22;2630;52.036;8.514;2023-06-10T19:19:43;25.10;97.70
5222;DHT22;2630;52.036;8.514;2023-06-10T19:24:34;24.80;97.40
5222;DHT22;2630;52.036;8.514;2023-06-10T19:27:00;24.80;97.50
5222;DHT22;2630;52.036;8.514;2023-06-10T19:31:51;24.60;96.40
5222;DHT22;2630;52.036;8.514;2023-06-10T19:36:43;24.50;97.00
5222;DHT22;2630;52.036;8.514;2023-06-10T19:41:35;24.30;97.70
5222;DHT22;2630;52.036;8.514;2023-06-10T19:48:55;24.00;98.70
5222;DHT22;2630;52.036;8.514;2023-06-10T19:51:23;23.80;98.40
5222;DHT22;2630;52.036;8.514;2023-06-10T20:06:05;23.30;99.90
5222;DHT22;2630;52.036;8.514;2023-06-10T20:18:15;22.90;99.90
5222;DHT22;2630;52.036;8.514;2023-06-10T20:20:40;22.80;99.90
5222;DHT22;2630;52.036;8.514;2023-06-10T20:23:06;22.70;99.90
5222;DHT22;2630;52.036;8.514;2023-06-10T20:25:31;22.60;99.90
5222;DHT22;2630;52.036;8.514;2023-06-10T20:28:00;22.50;99.90
5222;DHT22;2630;52.036;8.514;2023-06-10T20:30:25;22.40;99.90
5222;DHT22;2630;52.036;8.514;2023-06-10T20:35:18;22.10;99.90
5222;DHT22;2630;52.036;8.514;2023-06-10T20:37:45;22.00;99.90
5222;DHT22;2630;52.036;8.514;2023-06-10T20:40:11;22.00;99.90
5222;DHT22;2630;52.036;8.514;2023-06-10T20:42:38;21.80;99.90
5222;DHT22;2630;52.036;8.514;2023-06-10T20:45:04;21.70;99.90
5222;DHT22;2630;52.036;8.514;2023-06-10T20:47:29;21.60;99.90
5222;DHT22;2630;52.036;8.514;2023-06-10T20:49:55;21.40;99.90
5222;DHT22;2630;52.036;8.514;2023-06-10T20:52:21;21.30;99.90
5222;DHT22;2630;52.036;8.514;2023-06-10T21:04:30;20.70;99.90
5222;DHT22;2630;52.036;8.514;2023-06-10T21:06:56;20.60;99.90
5222;DHT22;2630;52.036;8.514;2023-06-10T21:09:21;20.50;99.90
5222;DHT22;2630;52.036;8.514;2023-06-10T21:11:47;20.40;99.90
5222;DHT22;2630;52.036;8.514;2023-06-10T21:21:30;20.20;99.90
5222;DHT22;2630;52.036;8.514;2023-06-10T21:26:22;19.90;99.90
5222;DHT22;2630;52.036;8.514;2023-06-10T21:28:47;19.80;99.90
5222;DHT22;2630;52.036;8.514;2023-06-10T21:31:13;19.80;99.90